Time;durP1;ratioP1;P1;durP2;ratioP2;P2;SDS_P1;SDS_P2;PMS_P1;PMS_P2;Temp;Humidity;BMP_temperature;BMP_pressure;BME280_temperature;BME280_humidity;BME280_pressure;Samples;Min_cycle;Max_cycle;Signal;HPM_P1;HPM_P2
2022/12/14 00:01:26;;;;;;;14.87;12.87;;;;;;;-7.08;100.00;95926.31;5029384;28;20451;-70
2022/12/14 00:03:55;;;;;;;13.83;12.43;;;;;;;-7.06;100.00;95922.69;5029889;28;20465;-71
2022/12/14 00:06:25;;;;;;;16.53;12.70;;;;;;;-6.98;100.00;95928.13;4975924;28;21515;-71
2022/12/14 00:08:54;;;;;;;14.40;12.90;;;;;;;-6.99;100.00;95926.50;5029633;28;20972;-71
2022/12/14 00:11:22;;;;;;;13.07;11.73;;;;;;;-7.04;100.00;95917.44;5031298;28;20583;-69
2022/12/14 00:13:52;;;;;;;16.47;13.10;;;;;;;-7.16;100.00;95914.78;5033579;28;20446;-72
2022/12/14 00:16:20;;;;;;;16.47;13.50;;;;;;;-7.18;100.00;95910.66;5033372;28;20453;-69
2022/12/14 00:18:49;;;;;;;15.23;12.50;;;;;;;-7.18;100.00;95908.09;5032582;28;20991;-69
2022/12/14 00:21:17;;;;;;;14.60;12.40;;;;;;;-7.20;100.00;95904.78;4975236;28;20572;-71
2022/12/14 00:23:48;;;;;;;17.03;13.00;;;;;;;-7.19;100.00;95902.13;5028559;28;20465;-70
2022/12/14 00:26:18;;;;;;;14.97;13.37;;;;;;;-7.23;100.00;95898.09;5025902;28;20699;-69
2022/12/14 00:28:47;;;;;;;14.57;12.43;;;;;;;-7.20;100.00;95892.72;5030601;28;20468;-73
2022/12/14 00:31:15;;;;;;;15.70;11.87;;;;;;;-7.18;100.00;95882.34;5029032;28;20461;-70
2022/12/14 00:33:43;;;;;;;14.43;12.90;;;;;;;-7.16;100.00;95895.94;5030053;28;20805;-69
2022/12/14 00:36:11;;;;;;;15.50;13.90;;;;;;;-7.17;100.00;95889.13;4968828;28;20905;-69
2022/12/14 00:38:39;;;;;;;17.07;12.60;;;;;;;-7.22;100.00;95892.00;4947451;28;20465;-72
2022/12/14 00:41:09;;;;;;;16.83;13.77;;;;;;;-7.21;100.00;95905.72;5008595;28;20448;-70
2022/12/14 00:43:37;;;;;;;14.67;11.83;;;;;;;-7.24;100.00;95896.44;5022072;28;20438;-71
2022/12/14 00:46:05;;;;;;;13.90;11.73;;;;;;;-7.24;100.00;95898.22;5027811;28;21001;-69
2022/12/14 00:48:33;;;;;;;17.90;12.87;;;;;;;-7.21;100.00;95890.28;5011680;28;20450;-70
2022/12/14 00:51:00;;;;;;;14.77;12.60;;;;;;;-7.13;100.00;95895.72;5033128;28;20963;-72
2022/12/14 00:53:28;;;;;;;13.87;11.47;;;;;;;-7.16;100.00;95895.94;4976860;28;20561;-70
2022/12/14 00:55:56;;;;;;;15.00;12.77;;;;;;;-7.11;100.00;95893.84;5033870;28;21370;-72
2022/12/14 00:58:26;;;;;;;14.37;11.83;;;;;;;-7.16;100.00;95895.94;5042476;28;20473;-72
2022/12/14 01:01:05;;;;;;;14.23;12.70;;;;;;;-7.14;100.00;95904.38;5007007;28;20708;-72
2022/12/14 01:03:33;;;;;;;16.67;12.60;;;;;;;-7.14;100.00;95896.63;5013106;28;20450;-72
2022/12/14 01:06:01;;;;;;;14.87;12.23;;;;;;;-7.11;100.00;95896.44;5036523;28;20478;-72
2022/12/14 01:08:34;;;;;;;14.13;11.83;;;;;;;-7.15;100.00;95902.72;5016074;28;20478;-73
2022/12/14 01:11:05;;;;;;;14.37;12.87;;;;;;;-7.19;100.00;95896.13;5012565;28;20960;-70
2022/12/14 01:13:34;;;;;;;15.43;12.77;;;;;;;-7.20;100.00;95899.66;5029527;28;20804;-69
2022/12/14 01:16:03;;;;;;;15.40;11.97;;;;;;;-7.24;100.00;95900.78;5005683;28;20493;-69
2022/12/14 01:18:33;;;;;;;12.77;11.43;;;;;;;-7.23;100.00;95907.59;5003265;28;20648;-70
2022/12/14 01:21:09;;;;;;;14.30;11.93;;;;;;;-7.22;100.00;95907.47;5036959;28;20969;-72
2022/12/14 01:23:36;;;;;;;14.57;12.23;;;;;;;-7.24;100.00;95909.31;5033322;28;20478;-70
2022/12/14 01:26:04;;;;;;;13.90;11.03;;;;;;;-7.25;100.00;95907.66;4981412;28;20441;-74
2022/12/14 01:28:33;;;;;;;13.90;11.93;;;;;;;-7.30;100.00;95895.13;5032017;28;20467;-72
2022/12/14 01:31:07;;;;;;;11.90;10.70;;;;;;;-7.31;100.00;95887.50;5010388;28;20735;-73
2022/12/14 01:33:35;;;;;;;13.43;10.93;;;;;;;-7.35;100.00;95880.94;5019586;28;20468;-70
2022/12/14 01:36:06;;;;;;;13.80;11.87;;;;;;;-7.33;100.00;95879.06;5028780;28;21102;-72
2022/12/14 01:38:34;;;;;;;12.57;11.27;;;;;;;-7.30;100.00;95884.84;5032899;28;20446;-72
2022/12/14 01:41:02;;;;;;;13.10;11.50;;;;;;;-7.33;100.00;95877.34;4980955;28;20449;-70
2022/12/14 01:43:45;;;;;;;12.67;11.37;;;;;;;-7.31;100.00;95880.63;5036033;28;20465;-73
2022/12/14 01:46:19;;;;;;;13.67;11.90;;;;;;;-7.28;100.00;95880.41;5012417;28;20563;-71
2022/12/14 01:48:49;;;;;;;12.70;11.20;;;;;;;-7.20;100.00;95879.06;5008511;28;20632;-70
2022/12/14 01:51:17;;;;;;;13.60;11.37;;;;;;;-7.19;100.00;95881.53;5032900;28;20995;-72
2022/12/14 01:53:45;;;;;;;15.73;11.97;;;;;;;-7.13;100.00;95893.97;5036624;28;20453;-69
2022/12/14 01:56:12;;;;;;;13.10;10.67;;;;;;;-7.07;100.00;95899.63;4984327;28;20481;-71
2022/12/14 01:58:40;;;;;;;13.23;10.70;;;;;;;-6.93;100.00;95901.25;5033510;28;20449;-70
2022/12/14 02:01:10;;;;;;;12.43;11.10;;;;;;;-6.90;100.00;95888.16;4976336;28;20487;-72
2022/12/14 02:03:42;;;;;;;12.30;11.03;;;;;;;-6.85;100.00;95871.41;5037051;28;20446;-71
2022/12/14 02:06:12;;;;;;;14.03;12.03;;;;;;;-6.90;100.00;95854.66;5003744;28;20434;-71
2022/12/14 02:08:42;;;;;;;13.27;10.90;;;;;;;-6.84;100.00;95856.81;5032582;28;20449;-69
2022/12/14 02:11:09;;;;;;;13.87;12.30;;;;;;;-6.85;100.00;95857.75;4975480;28;20535;-73
2022/12/14 02:13:41;;;;;;;14.23;12.77;;;;;;;-6.89;100.00;95849.38;5034400;28;21281;-71
2022/12/14 02:16:09;;;;;;;14.00;12.43;;;;;;;-6.92;100.00;95861.69;5001684;28;20936;-66
2022/12/14 02:18:37;;;;;;;13.80;11.07;;;;;;;-6.95;100.00;95857.56;5031022;28;20445;-69
2022/12/14 02:21:23;;;;;;;13.60;11.80;;;;;;;-6.97;100.00;95843.97;4996804;28;20651;-70
2022/12/14 02:24:20;;;;;;;13.47;12.10;;;;;;;-7.00;100.00;95827.00;5038017;28;20456;-70
2022/12/14 02:27:01;;;;;;;17.10;13.33;;;;;;;-6.95;100.00;95831.00;5010726;28;20899;-69
2022/12/14 02:29:42;;;;;;;13.73;10.93;;;;;;;-6.93;100.00;95826.56;5022600;28;20474;-70
2022/12/14 02:32:20;;;;;;;14.53;11.70;;;;;;;-6.98;100.00;95822.56;5008827;28;20485;-66
2022/12/14 02:34:56;;;;;;;15.23;11.37;;;;;;;-6.96;100.00;95825.00;5031044;28;20469;-71
2022/12/14 02:37:29;;;;;;;15.87;13.17;;;;;;;-6.95;100.00;95828.41;5021894;28;20873;-71
2022/12/14 02:40:07;;;;;;;14.77;11.87;;;;;;;-6.92;100.00;95831.59;5036483;28;20453;-67
2022/12/14 02:42:41;;;;;;;14.97;11.40;;;;;;;-6.95;100.00;95839.53;5029901;28;20796;-70
2022/12/14 02:45:14;;;;;;;14.03;12.57;;;;;;;-6.95;100.00;95849.03;4942546;28;20465;-73
2022/12/14 02:47:49;;;;;;;15.50;13.03;;;;;;;-6.98;100.00;95871.50;4955203;28;20723;-73
2022/12/14 02:50:22;;;;;;;11.43;10.30;;;;;;;-6.93;100.00;95862.63;5028752;28;20480;-73
2022/12/14 02:52:57;;;;;;;14.03;12.37;;;;;;;-6.91;100.00;95843.53;4999310;28;20462;-73
2022/12/14 02:55:29;;;;;;;13.90;12.50;;;;;;;-6.90;100.00;95840.03;5033227;28;20449;-70
2022/12/14 02:58:01;;;;;;;12.23;10.97;;;;;;;-6.89;100.00;95851.16;5007903;28;20491;-73
2022/12/14 03:00:32;;;;;;;15.57;12.27;;;;;;;-6.90;100.00;95845.16;5033382;28;20849;-70
2022/12/14 03:03:00;;;;;;;13.90;11.83;;;;;;;-6.92;100.00;95847.03;4978611;28;20540;-70
2022/12/14 03:05:28;;;;;;;13.73;12.10;;;;;;;-6.83;100.00;95845.56;5029434;28;20445;-73
2022/12/14 03:07:57;;;;;;;13.67;11.20;;;;;;;-6.84;100.00;95837.00;5030871;28;20819;-73
2022/12/14 03:10:33;;;;;;;13.17;11.97;;;;;;;-6.86;100.00;95840.63;5032044;28;20469;-72
2022/12/14 03:13:06;;;;;;;13.53;11.43;;;;;;;-6.82;100.00;95829.19;5005628;28;21194;-70
2022/12/14 03:15:38;;;;;;;14.17;12.73;;;;;;;-6.83;100.00;95818.03;5032103;28;20446;-69
2022/12/14 03:18:07;;;;;;;14.50;13.00;;;;;;;-6.89;100.00;95809.94;4980662;28;20462;-72
2022/12/14 03:20:36;;;;;;;14.67;12.33;;;;;;;-6.87;100.00;95798.59;5034210;28;21035;-72
2022/12/14 03:23:07;;;;;;;13.90;11.47;;;;;;;-6.91;100.00;95784.28;5030612;28;20458;-69
2022/12/14 03:25:40;;;;;;;16.23;12.23;;;;;;;-6.86;100.00;95783.97;5035323;28;21345;-68
2022/12/14 03:28:13;;;;;;;13.73;11.70;;;;;;;-6.87;100.00;95761.72;5029942;28;20453;-72
2022/12/14 03:30:45;;;;;;;13.47;12.03;;;;;;;-6.87;100.00;95770.25;5009808;28;20535;-73
2022/12/14 03:33:29;;;;;;;13.67;12.20;;;;;;;-6.85;100.00;95767.59;4976305;28;20445;-69
2022/12/14 03:36:00;;;;;;;13.43;11.37;;;;;;;-6.87;100.00;95765.09;5029429;28;21011;-71
2022/12/14 03:38:33;;;;;;;12.63;11.33;;;;;;;-6.85;100.00;95760.66;5034267;28;20477;-70
2022/12/14 03:41:07;;;;;;;16.07;12.67;;;;;;;-6.83;100.00;95761.38;5033615;28;20473;-71
2022/12/14 03:43:37;;;;;;;13.53;11.83;;;;;;;-6.78;100.00;95765.41;5038306;28;20638;-70
2022/12/14 03:46:11;;;;;;;11.80;10.70;;;;;;;-6.78;100.00;95755.91;5006446;28;20456;-72
2022/12/14 03:48:42;;;;;;;13.90;11.80;;;;;;;-6.74;100.00;95743.63;4966241;28;20842;-72
2022/12/14 03:51:14;;;;;;;13.53;11.90;;;;;;;-6.79;100.00;95736.22;5030519;28;20455;-70
2022/12/14 03:53:45;;;;;;;13.17;11.73;;;;;;;-6.83;100.00;95732.22;5030617;28;20616;-70
2022/12/14 03:56:16;;;;;;;12.47;10.50;;;;;;;-6.85;100.00;95734.91;5031633;28;20477;-70
2022/12/14 03:58:49;;;;;;;13.83;11.47;;;;;;;-6.85;100.00;95723.81;5030729;28;21240;-69
2022/12/14 04:01:30;;;;;;;12.90;11.60;;;;;;;-6.81;100.00;95730.38;5001748;28;20462;-73
2022/12/14 04:04:00;;;;;;;12.70;10.80;;;;;;;-6.81;100.00;95743.25;4973254;28;20467;-71
2022/12/14 04:06:32;;;;;;;12.70;11.40;;;;;;;-6.78;100.00;95745.59;5026197;28;20453;-72
2022/12/14 04:09:06;;;;;;;14.23;12.07;;;;;;;-6.73;100.00;95742.69;5042044;28;20445;-70
2022/12/14 04:20:02;;;;;;;12.87;11.00;;;;;;;-6.73;100.00;95727.25;4977682;28;20493;-71
2022/12/14 04:22:34;;;;;;;13.40;11.10;;;;;;;-6.76;100.00;95741.16;5023681;28;21046;-71
2022/12/14 04:27:52;;;;;;;15.33;11.90;;;;;;;-6.74;100.00;95731.56;5034836;28;20458;-72
2022/12/14 04:30:18;;;;;;;13.80;12.17;;;;;;;-6.78;100.00;95732.72;5031157;28;21311;-72
2022/12/14 04:32:50;;;;;;;15.07;11.80;;;;;;;-6.77;100.00;95739.50;5004584;28;20473;-75
2022/12/14 04:35:21;;;;;;;14.03;12.57;;;;;;;-6.79;100.00;95741.38;4970293;28;20462;-72
2022/12/14 04:37:51;;;;;;;12.80;11.50;;;;;;;-6.80;100.00;95739.75;5033343;28;20874;-72
2022/12/14 04:40:21;;;;;;;12.20;10.97;;;;;;;-6.80;100.00;95729.44;5032669;28;20429;-73
2022/12/14 04:42:52;;;;;;;16.50;12.73;;;;;;;-6.78;100.00;95717.25;5031933;28;20449;-70
2022/12/14 04:45:24;;;;;;;15.00;13.27;;;;;;;-6.80;100.00;95710.59;5005485;28;21031;-68
2022/12/14 04:47:57;;;;;;;14.43;12.70;;;;;;;-6.84;100.00;95705.63;4999060;28;20489;-69
2022/12/14 04:50:27;;;;;;;13.50;12.20;;;;;;;-6.88;100.00;95693.13;4955792;28;20842;-72
2022/12/14 04:53:00;;;;;;;14.97;13.47;;;;;;;-6.86;100.00;95689.47;4967063;28;20594;-71
2022/12/14 04:55:31;;;;;;;16.87;13.73;;;;;;;-6.81;100.00;95699.47;5034120;28;20457;-69
2022/12/14 04:58:03;;;;;;;14.83;12.63;;;;;;;-6.79;100.00;95701.94;5034233;28;20488;-71
2022/12/14 05:00:33;;;;;;;14.70;13.13;;;;;;;-6.71;100.00;95697.03;5028708;28;20454;-70
2022/12/14 05:03:16;;;;;;;15.20;13.63;;;;;;;-6.63;100.00;95699.00;5038711;28;20922;-70
2022/12/14 05:05:48;;;;;;;15.83;13.60;;;;;;;-6.68;100.00;95707.09;5028314;28;20849;-70
2022/12/14 05:08:21;;;;;;;15.07;13.23;;;;;;;-6.63;100.00;95711.91;5031703;28;20468;-69
2022/12/14 05:10:51;;;;;;;14.73;13.13;;;;;;;-6.59;100.00;95709.00;5000629;28;20594;-71
2022/12/14 05:13:22;;;;;;;15.47;13.57;;;;;;;-6.60;100.00;95709.13;5039905;28;20948;-71
2022/12/14 05:15:52;;;;;;;17.57;13.67;;;;;;;-6.54;100.00;95713.81;5022471;28;20643;-71
2022/12/14 05:18:21;;;;;;;17.70;14.47;;;;;;;-6.58;100.00;95702.91;5033364;28;20485;-71
2022/12/14 05:20:50;;;;;;;24.37;15.87;;;;;;;-6.60;100.00;95701.41;5031450;28;20720;-69
2022/12/14 05:23:18;;;;;;;17.57;15.10;;;;;;;-6.58;100.00;95705.47;5025889;28;20504;-71
2022/12/14 05:25:46;;;;;;;16.30;14.50;;;;;;;-6.53;100.00;95715.47;4992165;28;20589;-68
2022/12/14 05:28:15;;;;;;;16.57;14.63;;;;;;;-6.40;100.00;95703.28;5004591;28;20465;-69
2022/12/14 05:30:43;;;;;;;16.67;14.63;;;;;;;-6.44;100.00;95695.88;5032990;28;20657;-67
2022/12/14 05:33:18;;;;;;;18.57;15.30;;;;;;;-6.47;100.00;95681.50;5036574;28;20480;-68
2022/12/14 05:35:47;;;;;;;16.40;14.70;;;;;;;-6.52;100.00;95673.28;5033890;28;20473;-69
2022/12/14 05:38:14;;;;;;;15.63;13.33;;;;;;;-6.55;100.00;95661.44;5030255;28;20490;-70
2022/12/14 05:40:42;;;;;;;18.63;14.70;;;;;;;-6.58;100.00;95668.59;4979409;28;20743;-69
2022/12/14 05:43:12;;;;;;;17.53;15.47;;;;;;;-6.60;100.00;95655.81;5025071;28;20457;-68
2022/12/14 05:45:39;;;;;;;18.30;14.73;;;;;;;-6.56;100.00;95667.53;5028389;28;20677;-68
2022/12/14 05:48:07;;;;;;;19.33;15.90;;;;;;;-6.58;100.00;95653.13;5028735;28;20948;-72
2022/12/14 05:50:34;;;;;;;17.07;14.70;;;;;;;-6.57;100.00;95654.78;5031962;28;20555;-70
2022/12/14 05:53:03;;;;;;;17.10;15.13;;;;;;;-6.58;100.00;95660.88;5028972;28;20458;-71
2022/12/14 05:55:31;;;;;;;18.60;15.83;;;;;;;-6.59;100.00;95651.50;4972275;28;20694;-71
2022/12/14 05:57:58;;;;;;;17.13;15.17;;;;;;;-6.60;100.00;95642.13;5025407;28;20488;-72
2022/12/14 06:00:26;;;;;;;17.00;15.13;;;;;;;-6.59;100.00;95636.03;5029328;28;20508;-70
2022/12/14 06:02:54;;;;;;;16.60;14.90;;;;;;;-6.64;100.00;95630.38;5027510;28;20460;-70
2022/12/14 06:05:22;;;;;;;17.97;16.03;;;;;;;-6.64;100.00;95631.22;5033732;28;20845;-69
2022/12/14 06:07:49;;;;;;;16.83;13.83;;;;;;;-6.61;100.00;95636.16;5034859;28;20870;-70
2022/12/14 06:10:19;;;;;;;17.27;14.63;;;;;;;-6.59;100.00;95636.84;5007325;28;20454;-69
2022/12/14 06:12:46;;;;;;;17.97;16.13;;;;;;;-6.59;100.00;95631.69;5017074;28;21107;-72
2022/12/14 06:15:14;;;;;;;17.70;14.53;;;;;;;-6.59;100.00;95618.00;5021029;28;20882;-68
2022/12/14 06:17:42;;;;;;;17.30;15.27;;;;;;;-6.56;100.00;95620.34;5022714;28;20607;-69
2022/12/14 06:20:10;;;;;;;17.57;15.83;;;;;;;-6.56;100.00;95615.19;5028751;28;21020;-70
2022/12/14 06:22:38;;;;;;;19.17;15.83;;;;;;;-6.58;100.00;95612.72;5030354;28;21161;-69
2022/12/14 06:25:13;;;;;;;17.37;14.90;;;;;;;-6.58;100.00;95612.72;5034476;28;20618;-67
2022/12/14 06:27:42;;;;;;;19.97;15.70;;;;;;;-6.54;100.00;95619.28;4974773;28;20755;-71
2022/12/14 06:30:12;;;;;;;19.37;16.20;;;;;;;-6.47;100.00;95621.38;5032777;28;20462;-68
2022/12/14 06:32:39;;;;;;;21.43;16.57;;;;;;;-6.42;100.00;95625.25;5036544;28;20663;-69
2022/12/14 06:35:08;;;;;;;18.90;16.10;;;;;;;-6.40;100.00;95623.38;5032620;28;20438;-71
2022/12/14 06:37:36;;;;;;;20.30;16.03;;;;;;;-6.41;100.00;95620.94;5028281;28;20513;-69
2022/12/14 06:40:04;;;;;;;19.57;16.13;;;;;;;-6.43;100.00;95610.72;5032940;28;20453;-69
2022/12/14 06:42:32;;;;;;;17.37;15.47;;;;;;;-6.41;100.00;95608.84;4980530;28;20980;-69
2022/12/14 06:45:01;;;;;;;22.10;18.27;;;;;;;-6.41;100.00;95603.69;5027470;28;20444;-71
2022/12/14 06:47:28;;;;;;;20.80;15.87;;;;;;;-6.41;100.00;95595.97;5027400;28;20473;-70
2022/12/14 06:49:56;;;;;;;21.03;16.17;;;;;;;-6.37;100.00;95595.72;5035019;28;20441;-70
2022/12/14 06:52:23;;;;;;;20.73;16.77;;;;;;;-6.37;100.00;95603.47;5025901;28;21190;-69
2022/12/14 06:54:53;;;;;;;22.17;17.00;;;;;;;-6.31;100.00;95606.41;5033894;28;20485;-71
2022/12/14 06:57:21;;;;;;;21.13;17.13;;;;;;;-6.35;100.00;95599.00;5029877;28;20885;-67
2022/12/14 06:59:49;;;;;;;18.47;16.37;;;;;;;-6.35;100.00;95605.00;4969291;28;21161;-69
2022/12/14 07:02:18;;;;;;;19.30;16.30;;;;;;;-6.32;100.00;95598.78;4963466;28;20675;-70
2022/12/14 07:04:46;;;;;;;18.33;16.20;;;;;;;-6.29;100.00;95601.09;5004774;28;20450;-69
2022/12/14 07:07:14;;;;;;;17.43;14.87;;;;;;;-6.19;100.00;95611.53;5000856;28;21141;-70
2022/12/14 07:09:42;;;;;;;20.33;17.03;;;;;;;-6.19;100.00;95611.53;5014836;28;20845;-69
2022/12/14 07:12:10;;;;;;;19.47;16.23;;;;;;;-6.18;100.00;95608.03;5030639;28;20791;-71
2022/12/14 07:14:37;;;;;;;18.57;15.93;;;;;;;-6.09;100.00;95596.97;5032380;28;20438;-72
2022/12/14 07:17:05;;;;;;;22.53;16.67;;;;;;;-6.07;100.00;95589.13;4969767;28;20478;-72
2022/12/14 07:19:34;;;;;;;19.13;16.10;;;;;;;-6.14;100.00;95592.19;5034799;28;20484;-71
2022/12/14 07:22:03;;;;;;;20.43;16.80;;;;;;;-6.14;100.00;95579.31;5004473;28;20917;-71
2022/12/14 07:24:31;;;;;;;21.90;17.40;;;;;;;-6.10;100.00;95577.28;5011906;28;20917;-70
2022/12/14 07:26:59;;;;;;;21.40;16.33;;;;;;;-6.06;100.00;95572.72;5031542;28;20461;-70
2022/12/14 07:29:26;;;;;;;19.47;16.13;;;;;;;-6.06;100.00;95570.97;5032445;28;20867;-70
2022/12/14 07:32:01;;;;;;;21.57;16.53;;;;;;;-6.06;100.00;95567.56;4972022;28;21041;-70
2022/12/14 07:34:28;;;;;;;22.47;17.03;;;;;;;-6.07;100.00;95556.41;5035232;28;20445;-70
2022/12/14 07:36:58;;;;;;;17.90;15.93;;;;;;;-6.12;100.00;95551.63;5011107;28;20481;-69
2022/12/14 07:39:26;;;;;;;21.70;16.77;;;;;;;-6.03;100.00;95557.00;5006840;28;20842;-73
2022/12/14 07:41:53;;;;;;;22.53;17.67;;;;;;;-5.98;100.00;95547.09;5032128;28;20937;-70
2022/12/14 07:44:21;;;;;;;19.37;16.53;;;;;;;-5.93;100.00;95547.56;5030611;28;21116;-71
2022/12/14 07:46:49;;;;;;;20.17;16.87;;;;;;;-5.86;100.00;95540.16;4977484;28;20466;-71
2022/12/14 07:49:17;;;;;;;22.87;17.00;;;;;;;-5.84;100.00;95559.75;5031303;28;20440;-71
2022/12/14 07:51:45;;;;;;;22.17;17.93;;;;;;;-5.75;100.00;95578.00;5032479;28;20479;-71
2022/12/14 07:54:14;;;;;;;19.23;16.73;;;;;;;-5.66;100.00;95572.09;5007114;28;20442;-72
2022/12/14 07:56:43;;;;;;;23.37;17.67;;;;;;;-5.69;100.00;95574.94;5029051;28;20549;-71
2022/12/14 07:59:13;;;;;;;18.97;16.07;;;;;;;-5.69;100.00;95575.72;5030192;28;20478;-71
2022/12/14 08:01:42;;;;;;;19.60;17.57;;;;;;;-5.64;100.00;95562.47;4970081;28;20462;-71
2022/12/14 08:04:11;;;;;;;20.77;16.73;;;;;;;-5.50;100.00;95570.84;5029440;28;20853;-70
2022/12/14 08:06:40;;;;;;;20.73;17.23;;;;;;;-5.44;100.00;95566.03;5028814;28;20473;-72
2022/12/14 08:09:10;;;;;;;20.73;18.53;;;;;;;-5.47;100.00;95558.53;4998882;28;21683;-70
2022/12/14 08:11:39;;;;;;;21.13;18.53;;;;;;;-5.48;100.00;95564.63;5036849;28;20803;-71
2022/12/14 08:14:10;;;;;;;19.90;15.80;;;;;;;-5.38;100.00;95562.94;5026667;28;20619;-71
2022/12/14 08:16:38;;;;;;;20.90;17.63;;;;;;;-5.33;100.00;95572.06;5031093;28;20476;-71
2022/12/14 08:19:06;;;;;;;19.20;16.43;;;;;;;-5.39;100.00;95555.34;4974235;28;20484;-71
2022/12/14 08:21:33;;;;;;;20.10;17.93;;;;;;;-5.31;100.00;95563.28;5037276;28;20828;-71
2022/12/14 08:24:01;;;;;;;21.17;17.90;;;;;;;-5.24;100.00;95555.84;5004223;28;20484;-69
2022/12/14 08:26:28;;;;;;;18.83;16.83;;;;;;;-5.09;100.00;95562.31;5030953;28;20452;-72
2022/12/14 08:29:04;;;;;;;21.90;17.03;;;;;;;-4.98;100.00;95564.03;5027342;28;20464;-65
2022/12/14 08:31:32;;;;;;;19.63;17.60;;;;;;;-4.89;100.00;95566.78;5032161;28;20480;-70
2022/12/14 08:34:01;;;;;;;20.83;17.63;;;;;;;-5.07;100.00;95557.03;4948935;28;20466;-70
2022/12/14 08:36:31;;;;;;;23.33;17.03;;;;;;;-5.03;100.00;95562.75;5028057;28;20594;-69
2022/12/14 08:39:00;;;;;;;17.50;15.63;;;;;;;-5.15;100.00;95564.59;5028296;28;20468;-69
2022/12/14 08:41:28;;;;;;;20.87;16.80;;;;;;;-5.15;100.00;95551.66;5005816;28;20536;-67
2022/12/14 08:43:57;;;;;;;19.23;17.10;;;;;;;-5.10;100.00;95552.13;5029149;28;20445;-71
2022/12/14 08:46:28;;;;;;;18.60;16.13;;;;;;;-4.98;100.00;95550.28;5026347;28;20459;-71
2022/12/14 08:48:57;;;;;;;21.27;16.87;;;;;;;-4.98;100.00;95548.53;4980163;28;21004;-70
2022/12/14 08:51:25;;;;;;;19.43;15.97;;;;;;;-4.98;100.00;95556.28;5025679;28;21152;-67
2022/12/14 08:53:54;;;;;;;21.00;18.17;;;;;;;-4.92;100.00;95569.63;5031104;28;20564;-71
2022/12/14 08:56:23;;;;;;;19.23;17.17;;;;;;;-4.97;100.00;95564.81;5002591;28;20453;-70
2022/12/14 08:58:51;;;;;;;17.30;14.83;;;;;;;-4.72;100.00;95555.88;5033621;28;20484;-70
2022/12/14 09:01:21;;;;;;;19.77;15.23;;;;;;;-4.71;100.00;95544.56;5030330;28;20207;-70
2022/12/14 09:04:02;;;;;;;19.40;17.33;;;;;;;-4.65;100.00;95538.06;4980586;28;20461;-70
2022/12/14 09:06:29;;;;;;;18.80;15.90;;;;;;;-4.55;99.71;95548.44;5026516;28;21403;-71
2022/12/14 09:08:57;;;;;;;18.63;16.43;;;;;;;-4.45;98.71;95545.91;4972181;28;21011;-69
2022/12/14 09:11:25;;;;;;;17.13;15.13;;;;;;;-4.33;98.17;95529.31;5023835;28;20533;-70
2022/12/14 09:13:54;;;;;;;18.67;15.53;;;;;;;-4.33;97.60;95503.47;5031484;28;20387;-68
2022/12/14 09:16:23;;;;;;;19.60;15.97;;;;;;;-4.29;96.96;95497.06;5004305;28;20210;-69
2022/12/14 09:18:50;;;;;;;17.57;15.53;;;;;;;-4.12;96.60;95481.84;5029251;28;20968;-70
2022/12/14 09:21:19;;;;;;;19.07;16.10;;;;;;;-4.10;95.58;95475.59;5028663;28;20533;-68
2022/12/14 09:23:47;;;;;;;17.27;15.43;;;;;;;-4.08;94.85;95471.09;4980705;28;20449;-68
2022/12/14 09:26:24;;;;;;;18.47;16.47;;;;;;;-4.30;94.15;95471.34;5026456;28;20364;-68
2022/12/14 09:28:53;;;;;;;20.40;15.73;;;;;;;-4.20;93.25;95477.34;5031545;28;20214;-70
2022/12/14 09:31:22;;;;;;;16.40;14.47;;;;;;;-4.12;94.53;95472.31;5003952;28;20325;-72
2022/12/14 09:33:50;;;;;;;16.60;14.77;;;;;;;-4.32;93.37;95473.25;5031106;28;20235;-70
2022/12/14 09:36:21;;;;;;;18.03;15.70;;;;;;;-4.18;93.54;95467.69;5029226;28;20211;-72
2022/12/14 09:38:49;;;;;;;16.53;14.77;;;;;;;-4.30;93.44;95461.00;4989235;28;20294;-68
2022/12/14 09:41:29;;;;;;;17.30;15.30;;;;;;;-4.18;93.27;95447.00;5033147;28;20533;-67
2022/12/14 09:44:01;;;;;;;17.33;14.87;;;;;;;-4.13;92.65;95437.06;5037377;28;20736;-68
2022/12/14 09:46:38;;;;;;;20.03;16.80;;;;;;;-3.96;93.27;95432.16;5010451;28;20491;-69
2022/12/14 09:49:09;;;;;;;15.30;13.70;;;;;;;-3.87;92.21;95423.56;5028882;28;20445;-70
2022/12/14 09:51:38;;;;;;;16.43;13.63;;;;;;;-4.00;91.01;95420.44;5035159;28;20690;-67
2022/12/14 09:54:08;;;;;;;17.43;14.37;;;;;;;-3.79;90.00;95420.28;4989321;28;21514;-68
2022/12/14 09:56:37;;;;;;;18.00;13.83;;;;;;;-3.49;90.67;95424.47;5031161;28;20461;-73
2022/12/14 09:59:05;;;;;;;15.90;14.20;;;;;;;-3.87;89.40;95433.09;5033298;28;20956;-69
2022/12/14 10:01:43;;;;;;;16.93;14.17;;;;;;;-3.71;90.15;95435.97;5032725;28;20733;-71
2022/12/14 10:04:42;;;;;;;16.37;13.90;;;;;;;-3.50;88.91;95427.19;5035859;28;20965;-70
2022/12/14 10:07:21;;;;;;;19.93;15.43;;;;;;;-3.43;88.05;95423.06;5031344;28;20625;-72
2022/12/14 10:09:53;;;;;;;17.20;13.27;;;;;;;-3.36;88.29;95416.41;5025622;28;20335;-69
2022/12/14 10:12:35;;;;;;;17.23;14.03;;;;;;;-3.36;87.75;95411.22;5000469;28;20890;-71
2022/12/14 10:15:12;;;;;;;19.20;14.30;;;;;;;-3.36;87.36;95402.63;5029571;28;20203;-70
2022/12/14 10:17:55;;;;;;;16.57;14.73;;;;;;;-3.19;87.87;95395.88;5032987;28;20231;-69
2022/12/14 10:20:29;;;;;;;17.07;14.43;;;;;;;-3.15;88.11;95392.03;5024071;28;20430;-72
2022/12/14 10:23:00;;;;;;;18.20;16.00;;;;;;;-3.24;87.19;95390.31;5033552;28;20250;-69
2022/12/14 10:25:31;;;;;;;16.80;15.00;;;;;;;-3.09;87.92;95372.53;4983335;28;21886;-69
2022/12/14 10:28:03;;;;;;;16.03;13.97;;;;;;;-3.15;87.57;95376.50;5033649;28;20231;-69
2022/12/14 10:30:40;;;;;;;15.67;13.43;;;;;;;-3.06;86.67;95372.22;5034222;28;20735;-68
2022/12/14 10:33:17;;;;;;;17.27;14.30;;;;;;;-3.21;86.04;95390.03;5031652;28;20710;-69
2022/12/14 10:35:49;;;;;;;16.33;14.63;;;;;;;-3.06;86.18;95388.59;5006195;28;20210;-71
2022/12/14 10:38:26;;;;;;;15.07;13.37;;;;;;;-3.37;85.50;95388.88;5028039;28;20234;-71
2022/12/14 10:40:59;;;;;;;20.17;13.60;;;;;;;-3.68;86.66;95393.44;4979526;28;20218;-69
2022/12/14 10:43:38;;;;;;;16.70;13.70;;;;;;;-3.63;86.80;95391.22;5031850;28;20214;-71
2022/12/14 10:46:13;;;;;;;16.53;13.67;;;;;;;-3.25;86.75;95367.97;5029864;28;20207;-70
2022/12/14 10:48:48;;;;;;;18.93;15.03;;;;;;;-3.30;88.86;95362.41;5035262;28;20633;-71
2022/12/14 10:51:18;;;;;;;21.30;15.87;;;;;;;-3.24;88.47;95352.25;5003877;28;20958;-71
2022/12/14 10:53:51;;;;;;;19.87;16.43;;;;;;;-3.13;89.98;95363.41;5035704;28;20200;-70
2022/12/14 10:56:22;;;;;;;22.20;16.80;;;;;;;-3.29;91.16;95357.06;4979226;28;20776;-69
2022/12/14 10:59:21;;;;;;;20.13;17.27;;;;;;;-3.30;92.00;95373.56;5034692;28;20261;-67
2022/12/14 11:01:49;;;;;;;21.03;16.20;;;;;;;-3.34;92.21;95369.63;5031814;28;20208;-68
2022/12/14 11:04:28;;;;;;;18.60;14.67;;;;;;;-3.39;93.95;95345.94;5033838;28;20204;-68
2022/12/14 11:06:57;;;;;;;18.87;16.00;;;;;;;-3.41;94.82;95358.19;5008966;28;20702;-70
2022/12/14 11:09:26;;;;;;;18.43;16.47;;;;;;;-3.43;95.42;95349.75;5033914;28;20825;-73
2022/12/14 11:11:58;;;;;;;18.37;16.03;;;;;;;-3.53;96.98;95339.44;4977640;28;20215;-69
2022/12/14 11:14:27;;;;;;;19.23;16.10;;;;;;;-3.52;97.90;95341.06;5035451;28;20821;-70
2022/12/14 11:16:55;;;;;;;22.77;16.47;;;;;;;-3.43;98.84;95358.34;4972662;28;20230;-72
2022/12/14 11:19:24;;;;;;;20.23;16.90;;;;;;;-3.64;99.81;95350.75;5033489;28;20211;-69
2022/12/14 11:22:09;;;;;;;18.93;16.20;;;;;;;-3.67;100.00;95354.47;5031886;28;20381;-72
2022/12/14 11:24:45;;;;;;;18.97;15.90;;;;;;;-3.74;100.00;95340.47;5038995;28;20205;-71
2022/12/14 11:27:17;;;;;;;19.30;17.07;;;;;;;-3.76;100.00;95331.19;5037021;28;20230;-72
2022/12/14 11:29:48;;;;;;;21.23;16.73;;;;;;;-3.76;100.00;95316.50;5031628;28;20567;-68
2022/12/14 11:32:20;;;;;;;21.53;18.47;;;;;;;-3.83;100.00;95316.22;4976075;28;20222;-69
2022/12/14 11:34:55;;;;;;;20.77;18.10;;;;;;;-3.84;100.00;95311.19;5032160;28;20443;-71
2022/12/14 11:37:25;;;;;;;21.43;17.30;;;;;;;-3.74;100.00;95300.81;5035630;28;20230;-69
2022/12/14 11:39:56;;;;;;;20.50;17.13;;;;;;;-3.73;100.00;95308.44;5029270;28;20730;-71